createdAt,value
2018-08-16T00:01:02.297Z,1.33
2018-08-16T00:03:31.212Z,1.27
2018-08-16T00:06:00.312Z,1.30
2018-08-16T00:08:29.659Z,1.40
2018-08-16T00:10:59.536Z,1.50
2018-08-16T00:13:28.669Z,1.40
2018-08-16T00:15:57.838Z,1.40
2018-08-16T00:18:28.831Z,1.20
2018-08-16T00:20:57.702Z,1.17
2018-08-16T00:23:26.801Z,1.20
2018-08-16T00:25:56.001Z,1.37
2018-08-16T00:28:24.801Z,1.17
2018-08-16T00:30:53.959Z,1.17
2018-08-16T00:33:22.993Z,1.00
2018-08-16T00:35:51.830Z,1.20
2018-08-16T00:38:20.496Z,1.30
2018-08-16T00:40:50.072Z,1.13
2018-08-16T00:43:19.060Z,1.30
2018-08-16T00:45:49.353Z,1.20
2018-08-16T00:48:18.296Z,1.30
2018-08-16T00:50:47.165Z,1.13
2018-08-16T00:53:15.969Z,1.23
2018-08-16T00:55:44.834Z,1.13
2018-08-16T00:58:13.677Z,1.40
2018-08-16T01:00:42.625Z,1.20
2018-08-16T01:03:11.531Z,1.27
2018-08-16T01:05:40.870Z,1.40
2018-08-16T01:08:10.105Z,1.40
2018-08-16T01:10:39.345Z,1.17
2018-08-16T01:13:08.670Z,1.10
2018-08-16T01:15:37.712Z,1.20
2018-08-16T01:18:09.180Z,1.20
2018-08-16T01:20:38.082Z,1.07
2018-08-16T01:23:07.107Z,1.10
2018-08-16T01:25:36.337Z,1.00
2018-08-16T01:28:05.799Z,1.00
2018-08-16T01:30:34.372Z,1.27
2018-08-16T01:33:04.263Z,1.20
2018-08-16T01:35:33.655Z,1.10
2018-08-16T01:38:02.376Z,1.13
2018-08-16T01:40:31.543Z,1.03
2018-08-16T01:43:00.380Z,1.10
2018-08-16T01:45:29.804Z,1.30
2018-08-16T01:48:00.170Z,1.10
2018-08-16T01:50:30.512Z,0.93
2018-08-16T01:52:59.773Z,1.00
2018-08-16T01:55:28.945Z,1.00
2018-08-16T01:57:57.835Z,1.10
2018-08-16T02:00:27.265Z,1.00
2018-08-16T02:02:56.207Z,0.90
2018-08-16T02:05:25.142Z,1.03
2018-08-16T02:07:54.317Z,1.07
2018-08-16T02:10:23.577Z,1.00
2018-08-16T02:12:52.756Z,0.90
2018-08-16T02:15:21.636Z,1.13
2018-08-16T02:17:50.917Z,1.10
2018-08-16T02:20:19.647Z,0.87
2018-08-16T02:22:48.896Z,1.00
2018-08-16T02:25:21.453Z,1.23
2018-08-16T02:29:15.072Z,1.00
2018-08-16T02:31:44.204Z,1.00
2018-08-16T02:34:13.060Z,1.20
2018-08-16T02:36:41.578Z,1.00
2018-08-16T02:39:10.704Z,1.00
2018-08-16T02:41:40.244Z,1.00
2018-08-16T02:44:09.863Z,0.90
2018-08-16T02:46:38.959Z,1.00
2018-08-16T02:49:07.878Z,1.00
2018-08-16T02:51:37.008Z,0.90
2018-08-16T02:54:06.474Z,1.00
2018-08-16T02:56:35.742Z,1.00
2018-08-16T02:59:05.680Z,1.00
2018-08-16T03:04:14.108Z,0.90
2018-08-16T03:06:43.107Z,1.00
2018-08-16T03:09:11.960Z,1.00
2018-08-16T03:11:43.343Z,0.80
2018-08-16T03:14:12.602Z,0.90
2018-08-16T03:16:41.570Z,0.90
2018-08-16T03:19:11.347Z,1.07
2018-08-16T03:21:40.626Z,0.90
2018-08-16T03:24:09.693Z,0.90
2018-08-16T03:26:39.163Z,1.00
2018-08-16T03:29:08.124Z,0.90
2018-08-16T03:31:37.521Z,0.80
2018-08-16T03:34:06.929Z,0.90
2018-08-16T03:36:36.229Z,0.93
2018-08-16T03:39:07.771Z,0.67
2018-08-16T03:41:36.990Z,0.90
2018-08-16T03:44:07.239Z,0.90
2018-08-16T03:46:36.090Z,1.03
2018-08-16T03:49:05.628Z,0.80
2018-08-16T03:51:34.590Z,0.83
2018-08-16T03:54:03.833Z,1.00
2018-08-16T03:56:33.470Z,0.90
2018-08-16T03:59:02.218Z,1.00
2018-08-16T04:01:31.386Z,0.90
2018-08-16T04:11:06.747Z,1.00
2018-08-16T04:13:35.937Z,0.80
2018-08-16T04:16:04.614Z,0.83
2018-08-16T04:18:33.346Z,0.90
2018-08-16T04:21:02.539Z,1.07
2018-08-16T04:23:31.513Z,1.00
2018-08-16T04:26:00.312Z,0.83
2018-08-16T04:28:29.623Z,0.87
2018-08-16T04:30:58.622Z,1.00
2018-08-16T04:33:27.768Z,1.10
2018-08-16T04:35:56.777Z,0.90
2018-08-16T04:38:25.569Z,0.90
2018-08-16T04:40:54.602Z,1.10
2018-08-16T04:43:23.890Z,0.97
2018-08-16T04:45:52.751Z,0.97
2018-08-16T04:48:21.685Z,1.13
2018-08-16T04:50:50.318Z,0.87
2018-08-16T04:53:20.585Z,0.90
2018-08-16T04:55:49.600Z,1.10
2018-08-16T04:58:18.704Z,0.90
2018-08-16T05:00:48.286Z,1.10
2018-08-16T05:03:17.037Z,0.90
2018-08-16T05:05:46.072Z,0.87
2018-08-16T05:08:14.603Z,0.93
2018-08-16T05:10:43.467Z,1.00
2018-08-16T05:13:12.574Z,1.00
2018-08-16T05:15:41.684Z,0.83
2018-08-16T05:18:12.905Z,1.00
2018-08-16T05:20:42.136Z,0.90
2018-08-16T05:23:10.985Z,1.03
2018-08-16T05:25:40.007Z,1.03
2018-08-16T05:28:08.843Z,1.10
2018-08-16T05:30:37.403Z,0.90
2018-08-16T05:33:06.090Z,1.13
2018-08-16T05:35:35.426Z,1.10
2018-08-16T05:38:04.108Z,1.00
2018-08-16T05:40:33.274Z,1.13
2018-08-16T05:43:02.844Z,1.40
2018-08-16T05:45:31.912Z,1.07
2018-08-16T05:48:01.009Z,1.30
2018-08-16T05:50:30.278Z,1.20
2018-08-16T05:52:58.863Z,1.20
2018-08-16T05:55:27.978Z,1.20
2018-08-16T05:57:56.909Z,1.30
2018-08-16T06:00:26.176Z,1.67
2018-08-16T06:02:55.689Z,1.50
2018-08-16T06:05:24.568Z,1.60
2018-08-16T06:07:53.873Z,1.77
2018-08-16T06:10:24.286Z,1.80
2018-08-16T06:12:53.599Z,1.67
2018-08-16T06:15:23.455Z,1.80
2018-08-16T06:17:53.142Z,2.70
2018-08-16T06:20:22.287Z,2.43
2018-08-16T06:22:51.625Z,2.70
2018-08-16T06:25:21.666Z,3.50
2018-08-16T06:27:50.903Z,3.70
2018-08-16T06:30:20.213Z,4.80
2018-08-16T06:32:49.831Z,5.33
2018-08-16T06:35:18.865Z,6.40
2018-08-16T06:37:47.670Z,7.60
2018-08-16T06:40:17.875Z,7.63
2018-08-16T06:42:47.506Z,6.60
2018-08-16T06:45:16.520Z,8.50
2018-08-16T06:47:46.077Z,8.47
2018-08-16T06:50:14.881Z,9.10
2018-08-16T06:52:44.104Z,8.63
2018-08-16T06:55:13.150Z,8.17
2018-08-16T06:57:43.174Z,9.43
2018-08-16T07:00:12.477Z,9.17
2018-08-16T07:02:42.112Z,8.90
2018-08-16T07:05:11.062Z,10.90
2018-08-16T07:07:40.997Z,9.43
2018-08-16T07:10:12.703Z,9.77
2018-08-16T07:12:42.085Z,9.17
2018-08-16T07:15:14.919Z,8.67
2018-08-16T07:17:44.948Z,8.90
2018-08-16T07:20:14.180Z,10.67
2018-08-16T07:22:43.377Z,9.40
2018-08-16T07:25:12.467Z,10.40
2018-08-16T07:27:41.836Z,8.80
2018-08-16T07:30:12.064Z,8.93
2018-08-16T07:32:41.429Z,9.23
2018-08-16T07:35:10.559Z,8.70
2018-08-16T07:37:39.854Z,8.70
2018-08-16T07:40:10.044Z,7.93
2018-08-16T07:42:39.184Z,8.17
2018-08-16T07:45:10.605Z,7.27
2018-08-16T07:47:40.008Z,6.83
2018-08-16T07:50:10.772Z,7.43
2018-08-16T07:52:40.921Z,7.87
2018-08-16T07:55:10.810Z,6.83
2018-08-16T07:57:41.024Z,7.10
2018-08-16T08:00:14.217Z,6.37
2018-08-16T08:02:43.484Z,6.13
2018-08-16T08:05:12.714Z,6.90
2018-08-16T08:07:47.068Z,5.77
2018-08-16T08:10:16.055Z,5.93
2018-08-16T08:12:45.824Z,6.83
2018-08-16T08:15:15.601Z,6.80
2018-08-16T08:17:44.664Z,6.50
2018-08-16T08:20:16.052Z,7.03
2018-08-16T08:22:45.380Z,6.60
2018-08-16T08:25:15.687Z,5.70
2018-08-16T08:27:45.105Z,5.70
2018-08-16T08:30:15.788Z,4.80
2018-08-16T08:32:44.841Z,4.30
2018-08-16T08:35:14.598Z,4.13
2018-08-16T08:38:19.272Z,4.43
2018-08-16T08:40:49.022Z,5.27
2018-08-16T08:43:29.575Z,4.97
2018-08-16T08:45:59.001Z,5.10
2018-08-16T08:48:28.169Z,4.30
2018-08-16T08:50:56.986Z,4.47
2018-08-16T08:54:35.752Z,5.37
2018-08-16T08:57:15.990Z,4.90
2018-08-16T08:59:47.945Z,4.93
2018-08-16T09:02:18.090Z,5.33
2018-08-16T09:04:46.865Z,4.53
2018-08-16T09:07:17.144Z,4.83
2018-08-16T09:11:02.697Z,4.33
2018-08-16T09:13:43.033Z,6.67
2018-08-16T09:16:31.156Z,6.20
2018-08-16T09:19:00.397Z,6.83
2018-08-16T09:21:30.011Z,5.57
2018-08-16T09:23:59.146Z,6.90
2018-08-16T09:26:33.373Z,7.07
2018-08-16T09:29:04.705Z,6.90
2018-08-16T09:31:45.951Z,6.33
2018-08-16T09:34:19.519Z,5.93
2018-08-16T09:36:48.746Z,5.97
2018-08-16T09:39:19.192Z,5.80
2018-08-16T09:41:49.087Z,6.33
2018-08-16T09:44:19.088Z,7.83
2018-08-16T09:47:04.461Z,6.40
2018-08-16T09:49:37.986Z,7.80
2018-08-16T09:52:08.330Z,7.80
2018-08-16T09:54:37.846Z,7.30
2018-08-16T09:57:08.293Z,10.17
2018-08-16T09:59:39.567Z,10.07
2018-08-16T10:02:14.660Z,10.70
2018-08-16T10:04:45.811Z,10.40
2018-08-16T10:07:15.052Z,9.90
2018-08-16T10:09:44.397Z,9.77
2018-08-16T10:12:14.888Z,8.47
2018-08-16T10:14:44.439Z,8.67
2018-08-16T10:17:14.473Z,8.07
2018-08-16T10:19:44.011Z,8.67
2018-08-16T10:22:14.742Z,8.10
2018-08-16T10:24:44.519Z,8.77
2018-08-16T10:27:14.691Z,8.13
2018-08-16T10:29:44.489Z,8.90
2018-08-16T10:32:14.274Z,7.37
2018-08-16T10:34:43.886Z,9.03
2018-08-16T10:37:18.185Z,7.60
2018-08-16T10:39:47.820Z,7.40
2018-08-16T10:42:17.751Z,8.17
2018-08-16T10:44:47.383Z,8.83
2018-08-16T10:47:17.504Z,9.67
2018-08-16T10:49:47.866Z,9.47
2018-08-16T10:52:17.365Z,13.77
2018-08-16T10:54:46.654Z,12.07
2018-08-16T10:57:16.001Z,11.67
2018-08-16T10:59:45.236Z,11.73
2018-08-16T11:02:15.248Z,11.73
2018-08-16T11:04:46.262Z,12.47
2018-08-16T11:07:15.375Z,10.63
2018-08-16T11:09:44.564Z,12.40
2018-08-16T11:12:14.258Z,10.03
2018-08-16T11:14:44.128Z,10.03
2018-08-16T11:17:13.198Z,10.13
2018-08-16T11:19:42.242Z,10.17
2018-08-16T11:22:12.295Z,8.20
2018-08-16T11:24:41.365Z,8.57
2018-08-16T11:27:10.553Z,9.07
2018-08-16T11:29:39.852Z,10.10
2018-08-16T11:32:09.287Z,9.83
2018-08-16T11:34:38.121Z,9.30
2018-08-16T11:37:07.341Z,9.03
2018-08-16T11:39:36.885Z,9.60
2018-08-16T11:42:06.070Z,10.40
2018-08-16T11:44:35.111Z,10.60
2018-08-16T11:47:03.961Z,11.63
2018-08-16T11:49:33.747Z,10.00
2018-08-16T11:52:02.912Z,9.20
2018-08-16T11:54:32.533Z,9.63
2018-08-16T11:57:01.874Z,9.57
2018-08-16T11:59:32.815Z,10.03
2018-08-16T12:02:02.144Z,10.03
2018-08-16T12:04:31.624Z,11.13
2018-08-16T12:07:00.972Z,12.93
2018-08-16T12:09:29.654Z,12.10
2018-08-16T12:11:58.438Z,12.87
2018-08-16T12:14:29.292Z,11.67
2018-08-16T12:16:58.584Z,11.22
2018-08-16T12:19:27.732Z,10.03
2018-08-16T12:24:28.520Z,9.97
2018-08-16T12:26:57.666Z,8.70
2018-08-16T12:29:26.877Z,9.20
2018-08-16T12:31:57.215Z,7.50
2018-08-16T12:34:26.434Z,6.70
2018-08-16T12:36:55.041Z,6.53
2018-08-16T12:39:24.695Z,6.53
2018-08-16T12:41:54.297Z,6.47
2018-08-16T12:44:23.343Z,5.70
2018-08-16T12:46:52.968Z,5.90
2018-08-16T12:49:22.321Z,7.37
2018-08-16T12:51:52.003Z,6.90
2018-08-16T12:54:21.439Z,7.80
2018-08-16T12:56:50.413Z,8.20
2018-08-16T12:59:20.656Z,8.00
2018-08-16T13:01:50.630Z,8.53
2018-08-16T13:06:50.654Z,6.80
2018-08-16T13:09:22.808Z,8.47
2018-08-16T13:11:51.935Z,8.43
2018-08-16T13:14:22.597Z,7.30
2018-08-16T13:16:52.902Z,7.67
2018-08-16T13:19:22.548Z,7.53
2018-08-16T13:21:51.372Z,7.10
2018-08-16T13:24:20.265Z,6.50
2018-08-16T13:26:49.750Z,5.60
2018-08-16T13:29:19.258Z,7.03
2018-08-16T13:31:47.780Z,6.87
2018-08-16T13:34:17.416Z,5.87
2018-08-16T13:36:46.659Z,5.43
2018-08-16T13:39:16.349Z,6.53
2018-08-16T13:41:45.782Z,6.00
2018-08-16T13:44:14.591Z,5.10
2018-08-16T13:46:44.077Z,6.97
2018-08-16T13:49:12.989Z,7.17
2018-08-16T13:51:42.239Z,6.50
2018-08-16T13:54:11.726Z,9.10
2018-08-16T13:56:40.755Z,10.03
2018-08-16T13:59:10.046Z,9.17
2018-08-16T14:01:39.016Z,8.53
2018-08-16T14:04:08.770Z,7.80
2018-08-16T14:06:40.352Z,8.13
2018-08-16T14:09:10.850Z,7.77
2018-08-16T14:11:39.795Z,7.07
2018-08-16T14:14:09.178Z,6.10
2018-08-16T14:16:38.294Z,5.87
2018-08-16T14:19:07.263Z,6.13
2018-08-16T14:21:36.741Z,5.10
2018-08-16T14:24:06.278Z,4.70
2018-08-16T14:26:35.255Z,4.70
2018-08-16T14:29:04.218Z,5.50
2018-08-16T14:31:33.541Z,5.33
2018-08-16T14:34:03.391Z,5.23
2018-08-16T14:36:32.402Z,7.90
2018-08-16T14:39:01.448Z,9.43
2018-08-16T14:41:30.319Z,5.97
2018-08-16T14:43:59.676Z,5.17
2018-08-16T14:46:28.931Z,4.70
2018-08-16T14:48:57.814Z,5.40
2018-08-16T14:51:27.212Z,4.70
2018-08-16T14:53:56.024Z,4.50
2018-08-16T14:56:26.727Z,4.80
2018-08-16T14:58:57.438Z,4.13
2018-08-16T15:01:27.193Z,4.40
2018-08-16T15:03:56.755Z,5.10
2018-08-16T15:06:26.836Z,5.27
2018-08-16T15:08:56.553Z,6.77
2018-08-16T15:11:26.671Z,6.60
2018-08-16T15:13:59.645Z,6.20
2018-08-16T15:16:30.319Z,5.40
2018-08-16T15:19:00.508Z,7.37
2018-08-16T15:21:30.705Z,6.93
2018-08-16T15:24:00.195Z,5.60
2018-08-16T15:26:29.811Z,5.53
2018-08-16T15:28:59.263Z,4.67
2018-08-16T15:31:28.937Z,4.33
2018-08-16T15:33:58.250Z,3.80
2018-08-16T15:36:27.597Z,3.50
2018-08-16T15:38:57.614Z,3.23
2018-08-16T15:41:26.975Z,3.50
2018-08-16T15:43:55.553Z,3.10
2018-08-16T15:46:24.940Z,2.57
2018-08-16T15:48:54.264Z,2.80
2018-08-16T15:51:23.805Z,2.60
2018-08-16T15:53:53.116Z,2.50
2018-08-16T15:56:22.027Z,2.37
2018-08-16T15:58:51.014Z,2.50
2018-08-16T16:01:19.902Z,2.40
2018-08-16T16:06:13.284Z,2.20
2018-08-16T16:08:43.048Z,2.53
2018-08-16T16:12:36.888Z,2.20
2018-08-16T16:15:07.242Z,2.00
2018-08-16T16:17:36.074Z,2.00
2018-08-16T16:20:06.079Z,2.07
2018-08-16T16:22:35.678Z,2.37
2018-08-16T16:25:05.537Z,2.20
2018-08-16T16:27:35.137Z,2.00
2018-08-16T16:30:05.081Z,2.00
2018-08-16T16:32:34.269Z,2.03
2018-08-16T16:35:04.093Z,1.90
2018-08-16T16:37:33.249Z,2.47
2018-08-16T16:40:02.533Z,2.20
2018-08-16T16:42:31.942Z,2.30
2018-08-16T16:45:01.328Z,2.57
2018-08-16T16:48:54.673Z,2.60
2018-08-16T16:51:23.851Z,2.83
2018-08-16T16:53:52.712Z,2.33
2018-08-16T16:56:21.823Z,2.50
2018-08-16T16:58:50.890Z,2.27
2018-08-16T17:01:20.112Z,2.40
2018-08-16T17:03:49.925Z,2.30
2018-08-16T17:06:19.246Z,2.47
2018-08-16T17:08:48.665Z,2.30
2018-08-16T17:12:46.251Z,2.37
2018-08-16T17:15:16.323Z,2.40
2018-08-16T17:17:45.936Z,2.23
2018-08-16T17:20:15.426Z,2.40
2018-08-16T17:22:44.741Z,2.60
2018-08-16T17:25:14.239Z,2.50
2018-08-16T17:27:43.399Z,2.40
2018-08-16T17:30:12.211Z,2.40
2018-08-16T17:32:41.135Z,2.30
2018-08-16T17:35:10.043Z,2.50
2018-08-16T17:37:39.389Z,2.63
2018-08-16T17:40:08.551Z,2.30
2018-08-16T17:42:37.704Z,2.47
2018-08-16T17:45:06.864Z,2.73
2018-08-16T17:47:35.851Z,2.50
2018-08-16T17:50:05.679Z,2.40
2018-08-16T17:52:34.617Z,2.70
2018-08-16T17:55:04.051Z,2.50
2018-08-16T17:57:34.198Z,2.63
2018-08-16T18:00:03.478Z,2.80
2018-08-16T18:02:32.218Z,2.20
2018-08-16T18:05:01.469Z,2.43
2018-08-16T18:07:30.841Z,2.67
2018-08-16T18:10:00.324Z,2.40
2018-08-16T18:12:29.944Z,2.80
2018-08-16T18:14:59.699Z,2.40
2018-08-16T18:17:29.256Z,2.43
2018-08-16T18:19:58.804Z,2.53
2018-08-16T18:22:28.753Z,2.50
2018-08-16T18:27:30.945Z,2.80
2018-08-16T18:30:00.203Z,2.87
2018-08-16T18:32:29.175Z,2.67
2018-08-16T18:34:58.393Z,2.60
2018-08-16T18:37:27.317Z,2.70
2018-08-16T18:39:57.077Z,2.70
2018-08-16T18:42:26.580Z,2.60
2018-08-16T18:44:56.330Z,2.33
2018-08-16T18:47:26.132Z,2.90
2018-08-16T18:49:55.641Z,2.80
2018-08-16T18:52:25.187Z,2.87
2018-08-16T18:54:54.250Z,2.60
2018-08-16T18:57:23.928Z,2.67
2018-08-16T18:59:52.969Z,2.40
2018-08-16T19:02:22.185Z,2.20
2018-08-16T19:04:53.768Z,2.93
2018-08-16T19:07:23.470Z,2.50
2018-08-16T19:09:52.358Z,2.77
2018-08-16T19:12:21.846Z,2.87
2018-08-16T19:14:51.584Z,2.93
2018-08-16T19:17:20.885Z,2.40
2018-08-16T19:19:50.417Z,2.50
2018-08-16T19:22:19.449Z,2.20
2018-08-16T19:24:49.387Z,2.80
2018-08-16T19:27:19.542Z,2.70
2018-08-16T19:29:48.293Z,2.67
2018-08-16T19:32:16.963Z,2.90
2018-08-16T19:34:45.972Z,2.50
2018-08-16T19:37:15.245Z,2.77
2018-08-16T19:39:44.886Z,2.47
2018-08-16T19:42:14.234Z,2.77
2018-08-16T19:44:43.462Z,2.60
2018-08-16T19:47:12.366Z,2.70
2018-08-16T19:49:41.836Z,2.50
2018-08-16T19:52:11.126Z,2.57
2018-08-16T19:54:40.225Z,2.70
2018-08-16T19:57:09.307Z,2.90
2018-08-16T19:59:38.613Z,2.70
2018-08-16T20:02:08.117Z,2.60
2018-08-16T20:04:37.719Z,2.40
2018-08-16T20:07:07.766Z,3.17
2018-08-16T20:09:37.042Z,2.87
2018-08-16T20:12:08.546Z,2.90
2018-08-16T20:14:38.016Z,3.10
2018-08-16T20:17:07.482Z,2.50
2018-08-16T20:19:36.904Z,2.40
2018-08-16T20:22:12.950Z,2.77
2018-08-16T20:24:41.912Z,2.63
2018-08-16T20:27:12.044Z,2.50
2018-08-16T20:29:41.668Z,2.50
2018-08-16T20:32:11.398Z,2.50
2018-08-16T20:34:40.794Z,2.97
2018-08-16T20:37:09.791Z,2.50
2018-08-16T20:39:39.547Z,2.33
2018-08-16T20:42:09.387Z,2.70
2018-08-16T20:44:38.387Z,2.67
2018-08-16T20:47:08.101Z,2.70
2018-08-16T20:49:36.761Z,2.57
2018-08-16T20:52:05.904Z,2.80
2018-08-16T20:54:35.018Z,2.70
2018-08-16T20:57:04.178Z,2.60
2018-08-16T20:59:33.872Z,2.57
2018-08-16T21:02:05.420Z,2.60
2018-08-16T21:04:34.375Z,2.70
2018-08-16T21:07:03.399Z,2.67
2018-08-16T21:09:31.903Z,2.40
2018-08-16T21:12:01.946Z,2.57
2018-08-16T21:14:30.676Z,2.53
2018-08-16T21:17:00.560Z,2.33
2018-08-16T21:19:29.863Z,2.87
2018-08-16T21:21:59.600Z,2.70
2018-08-16T21:24:30.530Z,2.20
2018-08-16T21:26:59.537Z,2.87
2018-08-16T21:29:28.892Z,2.73
2018-08-16T21:31:57.717Z,2.70
2018-08-16T21:34:26.797Z,2.50
2018-08-16T21:36:55.948Z,2.50
2018-08-16T21:39:25.303Z,2.40
2018-08-16T21:41:54.576Z,2.63
2018-08-16T21:44:23.956Z,2.80
2018-08-16T21:46:53.038Z,2.40
2018-08-16T21:49:22.329Z,2.40
2018-08-16T21:51:50.860Z,2.87
2018-08-16T21:54:19.955Z,2.30
2018-08-16T21:56:48.961Z,2.60
2018-08-16T21:59:18.191Z,2.70
2018-08-16T22:01:47.775Z,2.67
2018-08-16T22:04:16.851Z,2.40
2018-08-16T22:07:01.378Z,2.70
2018-08-16T22:09:30.779Z,2.57
2018-08-16T22:12:00.538Z,2.60
2018-08-16T22:14:31.374Z,2.60
2018-08-16T22:17:00.290Z,2.70
2018-08-16T22:19:28.933Z,2.50
2018-08-16T22:21:58.238Z,2.47
2018-08-16T22:24:27.322Z,2.20
2018-08-16T22:26:56.046Z,2.30
2018-08-16T22:29:25.103Z,2.40
2018-08-16T22:31:54.015Z,2.17
2018-08-16T22:34:22.809Z,2.20
2018-08-16T22:36:52.064Z,1.80
2018-08-16T22:39:20.785Z,1.93
2018-08-16T22:41:49.305Z,2.20
2018-08-16T22:44:18.626Z,2.13
2018-08-16T22:46:47.969Z,1.90
2018-08-16T22:49:17.185Z,1.80
2018-08-16T22:51:45.926Z,1.97
2018-08-16T22:54:14.857Z,1.90
2018-08-16T22:56:43.385Z,1.90
2018-08-16T22:59:12.496Z,1.50
2018-08-16T23:01:41.010Z,1.70
2018-08-16T23:04:09.996Z,1.67
2018-08-16T23:06:38.723Z,1.60
2018-08-16T23:09:08.034Z,1.50
2018-08-16T23:11:37.072Z,1.77
2018-08-16T23:14:09.791Z,1.50
2018-08-16T23:16:38.981Z,1.70
2018-08-16T23:19:08.357Z,1.50
2018-08-16T23:21:37.423Z,1.40
2018-08-16T23:24:07.053Z,1.63
2018-08-16T23:26:36.625Z,1.50
2018-08-16T23:29:06.608Z,1.53
2018-08-16T23:31:35.788Z,1.40
2018-08-16T23:34:05.284Z,1.60
2018-08-16T23:36:34.760Z,1.40
2018-08-16T23:39:03.854Z,1.57
2018-08-16T23:41:32.755Z,1.40
2018-08-16T23:44:01.597Z,1.20
2018-08-16T23:46:30.413Z,1.20
2018-08-16T23:48:59.566Z,1.30
2018-08-16T23:51:28.890Z,1.40
2018-08-16T23:53:58.024Z,1.30
2018-08-16T23:56:26.811Z,1.60
2018-08-16T23:58:56.162Z,1.40
